sensor_id;sensor_type;location;lat;lon;timestamp;P1;durP1;ratioP1;P2;durP2;ratioP2
13345;SDS011;6742;48.036;15.780;2024-03-08T00:02:03;49.03;;;31.67;;
13345;SDS011;6742;48.036;15.780;2024-03-08T00:04:32;48.93;;;32.23;;
13345;SDS011;6742;48.036;15.780;2024-03-08T00:06:59;46.57;;;31.63;;
13345;SDS011;6742;48.036;15.780;2024-03-08T00:09:26;48.73;;;32.03;;
13345;SDS011;6742;48.036;15.780;2024-03-08T00:11:53;46.50;;;30.83;;
13345;SDS011;6742;48.036;15.780;2024-03-08T00:14:20;45.97;;;30.53;;
13345;SDS011;6742;48.036;15.780;2024-03-08T00:16:47;45.43;;;30.83;;
13345;SDS011;6742;48.036;15.780;2024-03-08T00:19:15;46.57;;;31.30;;
13345;SDS011;6742;48.036;15.780;2024-03-08T00:21:44;45.57;;;31.33;;
13345;SDS011;6742;48.036;15.780;2024-03-08T00:24:11;48.10;;;30.83;;
13345;SDS011;6742;48.036;15.780;2024-03-08T00:26:38;45.70;;;29.93;;
13345;SDS011;6742;48.036;15.780;2024-03-08T00:29:05;50.10;;;31.67;;
13345;SDS011;6742;48.036;15.780;2024-03-08T00:31:32;49.77;;;32.07;;
13345;SDS011;6742;48.036;15.780;2024-03-08T00:34:00;44.60;;;30.13;;
13345;SDS011;6742;48.036;15.780;2024-03-08T00:36:27;47.53;;;30.93;;
13345;SDS011;6742;48.036;15.780;2024-03-08T00:38:56;47.87;;;30.57;;
13345;SDS011;6742;48.036;15.780;2024-03-08T00:41:25;45.53;;;30.47;;
13345;SDS011;6742;48.036;15.780;2024-03-08T00:43:52;46.73;;;30.50;;
13345;SDS011;6742;48.036;15.780;2024-03-08T00:46:19;47.77;;;31.67;;
13345;SDS011;6742;48.036;15.780;2024-03-08T00:48:47;45.27;;;29.90;;
13345;SDS011;6742;48.036;15.780;2024-03-08T00:51:14;46.53;;;29.77;;
13345;SDS011;6742;48.036;15.780;2024-03-08T00:53:41;48.90;;;30.77;;
13345;SDS011;6742;48.036;15.780;2024-03-08T00:56:09;46.70;;;30.10;;
13345;SDS011;6742;48.036;15.780;2024-03-08T00:58:36;45.73;;;30.23;;
13345;SDS011;6742;48.036;15.780;2024-03-08T01:01:03;47.23;;;30.77;;
13345;SDS011;6742;48.036;15.780;2024-03-08T01:03:30;45.87;;;29.73;;
13345;SDS011;6742;48.036;15.780;2024-03-08T01:05:59;48.97;;;29.90;;
13345;SDS011;6742;48.036;15.780;2024-03-08T01:08:27;45.37;;;29.60;;
13345;SDS011;6742;48.036;15.780;2024-03-08T01:10:53;45.03;;;29.50;;
13345;SDS011;6742;48.036;15.780;2024-03-08T01:13:22;47.47;;;29.53;;
13345;SDS011;6742;48.036;15.780;2024-03-08T01:15:49;46.60;;;30.50;;
13345;SDS011;6742;48.036;15.780;2024-03-08T01:18:16;46.77;;;30.93;;
13345;SDS011;6742;48.036;15.780;2024-03-08T01:20:42;45.23;;;30.57;;
13345;SDS011;6742;48.036;15.780;2024-03-08T01:23:09;52.90;;;36.20;;
13345;SDS011;6742;48.036;15.780;2024-03-08T01:25:35;55.57;;;37.93;;
13345;SDS011;6742;48.036;15.780;2024-03-08T01:28:03;52.20;;;33.67;;
13345;SDS011;6742;48.036;15.780;2024-03-08T01:30:31;47.77;;;30.87;;
13345;SDS011;6742;48.036;15.780;2024-03-08T01:33:00;47.00;;;30.97;;
13345;SDS011;6742;48.036;15.780;2024-03-08T01:35:27;51.83;;;32.77;;
13345;SDS011;6742;48.036;15.780;2024-03-08T01:37:54;47.70;;;32.47;;
13345;SDS011;6742;48.036;15.780;2024-03-08T01:40:21;46.27;;;30.23;;
13345;SDS011;6742;48.036;15.780;2024-03-08T01:42:48;47.73;;;30.00;;
13345;SDS011;6742;48.036;15.780;2024-03-08T01:45:15;49.03;;;30.47;;
13345;SDS011;6742;48.036;15.780;2024-03-08T01:47:44;48.27;;;31.13;;
13345;SDS011;6742;48.036;15.780;2024-03-08T01:50:13;44.03;;;29.27;;
13345;SDS011;6742;48.036;15.780;2024-03-08T01:52:41;43.07;;;28.57;;
13345;SDS011;6742;48.036;15.780;2024-03-08T01:55:08;46.90;;;30.80;;
13345;SDS011;6742;48.036;15.780;2024-03-08T01:57:36;45.53;;;29.73;;
13345;SDS011;6742;48.036;15.780;2024-03-08T02:00:03;44.83;;;29.87;;
13345;SDS011;6742;48.036;15.780;2024-03-08T02:02:35;45.50;;;29.20;;
13345;SDS011;6742;48.036;15.780;2024-03-08T02:05:05;47.80;;;30.03;;
13345;SDS011;6742;48.036;15.780;2024-03-08T02:07:33;44.07;;;29.53;;
13345;SDS011;6742;48.036;15.780;2024-03-08T02:10:01;45.47;;;30.57;;
13345;SDS011;6742;48.036;15.780;2024-03-08T02:12:28;46.90;;;30.90;;
13345;SDS011;6742;48.036;15.780;2024-03-08T02:14:55;46.40;;;30.37;;
13345;SDS011;6742;48.036;15.780;2024-03-08T02:17:22;44.53;;;28.93;;
13345;SDS011;6742;48.036;15.780;2024-03-08T02:19:49;46.97;;;29.90;;
13345;SDS011;6742;48.036;15.780;2024-03-08T02:22:17;43.20;;;29.47;;
13345;SDS011;6742;48.036;15.780;2024-03-08T02:24:44;43.50;;;29.43;;
13345;SDS011;6742;48.036;15.780;2024-03-08T02:27:12;45.90;;;30.07;;
13345;SDS011;6742;48.036;15.780;2024-03-08T02:29:39;47.87;;;29.37;;
13345;SDS011;6742;48.036;15.780;2024-03-08T02:32:09;45.37;;;29.83;;
13345;SDS011;6742;48.036;15.780;2024-03-08T02:34:36;43.97;;;28.90;;
13345;SDS011;6742;48.036;15.780;2024-03-08T02:37:03;44.47;;;28.67;;
13345;SDS011;6742;48.036;15.780;2024-03-08T02:39:31;45.03;;;29.87;;
13345;SDS011;6742;48.036;15.780;2024-03-08T02:41:58;45.57;;;29.63;;
13345;SDS011;6742;48.036;15.780;2024-03-08T02:44:25;44.80;;;28.37;;
13345;SDS011;6742;48.036;15.780;2024-03-08T02:46:52;48.13;;;30.87;;
13345;SDS011;6742;48.036;15.780;2024-03-08T02:49:20;46.60;;;29.13;;
13345;SDS011;6742;48.036;15.780;2024-03-08T02:51:47;48.00;;;28.00;;
13345;SDS011;6742;48.036;15.780;2024-03-08T02:54:14;45.93;;;30.30;;
13345;SDS011;6742;48.036;15.780;2024-03-08T02:56:43;47.27;;;30.47;;
13345;SDS011;6742;48.036;15.780;2024-03-08T02:59:11;42.83;;;28.57;;
13345;SDS011;6742;48.036;15.780;2024-03-08T03:01:38;45.07;;;27.93;;
13345;SDS011;6742;48.036;15.780;2024-03-08T03:04:06;45.40;;;28.53;;
13345;SDS011;6742;48.036;15.780;2024-03-08T03:06:33;42.43;;;28.30;;
13345;SDS011;6742;48.036;15.780;2024-03-08T03:09:00;47.03;;;30.97;;
13345;SDS011;6742;48.036;15.780;2024-03-08T03:11:28;47.17;;;29.10;;
13345;SDS011;6742;48.036;15.780;2024-03-08T03:13:56;44.20;;;29.50;;
13345;SDS011;6742;48.036;15.780;2024-03-08T03:16:23;44.87;;;28.43;;
13345;SDS011;6742;48.036;15.780;2024-03-08T03:18:50;48.70;;;30.00;;
13345;SDS011;6742;48.036;15.780;2024-03-08T03:21:22;47.30;;;28.37;;
13345;SDS011;6742;48.036;15.780;2024-03-08T03:23:49;44.63;;;29.47;;
13345;SDS011;6742;48.036;15.780;2024-03-08T03:26:16;46.57;;;28.93;;
13345;SDS011;6742;48.036;15.780;2024-03-08T03:28:43;44.30;;;28.97;;
13345;SDS011;6742;48.036;15.780;2024-03-08T03:31:12;44.90;;;29.73;;
13345;SDS011;6742;48.036;15.780;2024-03-08T03:33:39;44.70;;;29.40;;
13345;SDS011;6742;48.036;15.780;2024-03-08T03:36:06;45.57;;;30.37;;
13345;SDS011;6742;48.036;15.780;2024-03-08T03:38:35;44.77;;;28.73;;
13345;SDS011;6742;48.036;15.780;2024-03-08T03:41:02;43.07;;;28.83;;
13345;SDS011;6742;48.036;15.780;2024-03-08T03:43:36;44.40;;;29.43;;
13345;SDS011;6742;48.036;15.780;2024-03-08T03:46:05;45.77;;;28.77;;
13345;SDS011;6742;48.036;15.780;2024-03-08T03:48:34;44.80;;;29.23;;
13345;SDS011;6742;48.036;15.780;2024-03-08T03:51:01;45.97;;;29.33;;
13345;SDS011;6742;48.036;15.780;2024-03-08T03:53:29;47.30;;;30.60;;
13345;SDS011;6742;48.036;15.780;2024-03-08T03:55:56;48.27;;;30.20;;
13345;SDS011;6742;48.036;15.780;2024-03-08T03:58:22;43.83;;;29.33;;
13345;SDS011;6742;48.036;15.780;2024-03-08T04:00:49;41.77;;;28.27;;
13345;SDS011;6742;48.036;15.780;2024-03-08T04:03:16;42.57;;;29.70;;
13345;SDS011;6742;48.036;15.780;2024-03-08T04:05:45;49.97;;;30.10;;
13345;SDS011;6742;48.036;15.780;2024-03-08T04:08:12;45.73;;;29.57;;
13345;SDS011;6742;48.036;15.780;2024-03-08T04:10:39;43.23;;;29.50;;
13345;SDS011;6742;48.036;15.780;2024-03-08T04:13:07;44.00;;;28.00;;
13345;SDS011;6742;48.036;15.780;2024-03-08T04:15:35;43.67;;;28.37;;
13345;SDS011;6742;48.036;15.780;2024-03-08T04:18:03;44.37;;;27.33;;
13345;SDS011;6742;48.036;15.780;2024-03-08T04:20:30;43.57;;;28.63;;
13345;SDS011;6742;48.036;15.780;2024-03-08T04:22:58;47.43;;;29.03;;
13345;SDS011;6742;48.036;15.780;2024-03-08T04:25:28;44.37;;;27.80;;
13345;SDS011;6742;48.036;15.780;2024-03-08T04:27:56;43.77;;;28.40;;
13345;SDS011;6742;48.036;15.780;2024-03-08T04:30:22;42.50;;;28.40;;
13345;SDS011;6742;48.036;15.780;2024-03-08T04:32:49;41.03;;;28.37;;
13345;SDS011;6742;48.036;15.780;2024-03-08T04:35:18;41.53;;;27.53;;
13345;SDS011;6742;48.036;15.780;2024-03-08T04:37:45;43.23;;;27.80;;
13345;SDS011;6742;48.036;15.780;2024-03-08T04:40:13;41.97;;;27.70;;
13345;SDS011;6742;48.036;15.780;2024-03-08T04:42:41;43.83;;;27.27;;
13345;SDS011;6742;48.036;15.780;2024-03-08T04:45:09;45.57;;;28.63;;
13345;SDS011;6742;48.036;15.780;2024-03-08T04:47:37;43.17;;;28.53;;
13345;SDS011;6742;48.036;15.780;2024-03-08T04:50:04;43.07;;;28.70;;
13345;SDS011;6742;48.036;15.780;2024-03-08T04:52:32;44.57;;;29.23;;
13345;SDS011;6742;48.036;15.780;2024-03-08T04:54:59;44.77;;;28.63;;
13345;SDS011;6742;48.036;15.780;2024-03-08T04:57:28;41.83;;;29.17;;
13345;SDS011;6742;48.036;15.780;2024-03-08T04:59:55;45.80;;;30.17;;
13345;SDS011;6742;48.036;15.780;2024-03-08T05:02:24;43.23;;;29.60;;
13345;SDS011;6742;48.036;15.780;2024-03-08T05:04:51;44.50;;;30.20;;
13345;SDS011;6742;48.036;15.780;2024-03-08T05:07:18;43.80;;;29.33;;
13345;SDS011;6742;48.036;15.780;2024-03-08T05:09:45;42.73;;;28.13;;
13345;SDS011;6742;48.036;15.780;2024-03-08T05:12:16;43.43;;;28.70;;
13345;SDS011;6742;48.036;15.780;2024-03-08T05:14:45;44.67;;;29.03;;
13345;SDS011;6742;48.036;15.780;2024-03-08T05:17:14;39.93;;;27.07;;
13345;SDS011;6742;48.036;15.780;2024-03-08T05:19:41;41.90;;;26.90;;
13345;SDS011;6742;48.036;15.780;2024-03-08T05:22:08;43.07;;;28.60;;
13345;SDS011;6742;48.036;15.780;2024-03-08T05:24:35;44.20;;;28.67;;
13345;SDS011;6742;48.036;15.780;2024-03-08T05:27:02;41.87;;;27.37;;
13345;SDS011;6742;48.036;15.780;2024-03-08T05:29:30;44.63;;;27.70;;
13345;SDS011;6742;48.036;15.780;2024-03-08T05:31:58;40.80;;;26.80;;
13345;SDS011;6742;48.036;15.780;2024-03-08T05:34:25;39.67;;;26.47;;
13345;SDS011;6742;48.036;15.780;2024-03-08T05:36:53;38.07;;;26.10;;
13345;SDS011;6742;48.036;15.780;2024-03-08T05:39:20;37.03;;;25.80;;
13345;SDS011;6742;48.036;15.780;2024-03-08T05:41:47;38.73;;;26.70;;
13345;SDS011;6742;48.036;15.780;2024-03-08T05:44:15;38.03;;;26.30;;
13345;SDS011;6742;48.036;15.780;2024-03-08T05:46:42;38.27;;;26.03;;
13345;SDS011;6742;48.036;15.780;2024-03-08T05:49:11;38.27;;;24.87;;
13345;SDS011;6742;48.036;15.780;2024-03-08T05:51:39;37.23;;;24.90;;
13345;SDS011;6742;48.036;15.780;2024-03-08T05:54:07;35.80;;;24.83;;
13345;SDS011;6742;48.036;15.780;2024-03-08T05:56:35;35.57;;;24.80;;
13345;SDS011;6742;48.036;15.780;2024-03-08T05:59:02;35.70;;;25.67;;
13345;SDS011;6742;48.036;15.780;2024-03-08T06:01:29;35.50;;;24.60;;
13345;SDS011;6742;48.036;15.780;2024-03-08T06:03:56;34.23;;;24.13;;
13345;SDS011;6742;48.036;15.780;2024-03-08T06:06:25;33.60;;;24.07;;
13345;SDS011;6742;48.036;15.780;2024-03-08T06:08:55;35.43;;;24.00;;
13345;SDS011;6742;48.036;15.780;2024-03-08T06:11:23;34.87;;;24.20;;
13345;SDS011;6742;48.036;15.780;2024-03-08T06:13:53;33.83;;;24.03;;
13345;SDS011;6742;48.036;15.780;2024-03-08T06:16:25;33.17;;;24.43;;
13345;SDS011;6742;48.036;15.780;2024-03-08T06:18:54;36.43;;;24.43;;
13345;SDS011;6742;48.036;15.780;2024-03-08T06:21:26;34.13;;;24.23;;
13345;SDS011;6742;48.036;15.780;2024-03-08T06:23:53;34.47;;;23.47;;
13345;SDS011;6742;48.036;15.780;2024-03-08T06:26:22;32.03;;;23.30;;
13345;SDS011;6742;48.036;15.780;2024-03-08T06:28:49;34.83;;;24.13;;
13345;SDS011;6742;48.036;15.780;2024-03-08T06:31:17;35.03;;;25.80;;
13345;SDS011;6742;48.036;15.780;2024-03-08T06:33:44;36.87;;;25.10;;
13345;SDS011;6742;48.036;15.780;2024-03-08T06:36:15;33.80;;;24.93;;
13345;SDS011;6742;48.036;15.780;2024-03-08T06:38:45;32.73;;;24.30;;
13345;SDS011;6742;48.036;15.780;2024-03-08T06:41:12;36.60;;;25.30;;
13345;SDS011;6742;48.036;15.780;2024-03-08T06:43:41;32.30;;;23.30;;
13345;SDS011;6742;48.036;15.780;2024-03-08T06:46:08;34.83;;;24.43;;
13345;SDS011;6742;48.036;15.780;2024-03-08T06:48:37;32.43;;;21.87;;
13345;SDS011;6742;48.036;15.780;2024-03-08T06:51:04;34.70;;;22.77;;
13345;SDS011;6742;48.036;15.780;2024-03-08T06:53:31;33.73;;;23.03;;
13345;SDS011;6742;48.036;15.780;2024-03-08T06:56:01;33.03;;;23.33;;
13345;SDS011;6742;48.036;15.780;2024-03-08T06:58:28;33.60;;;22.37;;
13345;SDS011;6742;48.036;15.780;2024-03-08T07:00:55;34.17;;;23.40;;
13345;SDS011;6742;48.036;15.780;2024-03-08T07:03:25;32.00;;;22.27;;
13345;SDS011;6742;48.036;15.780;2024-03-08T07:05:54;35.10;;;23.67;;
13345;SDS011;6742;48.036;15.780;2024-03-08T07:08:23;33.83;;;23.23;;
13345;SDS011;6742;48.036;15.780;2024-03-08T07:10:51;33.67;;;22.90;;
13345;SDS011;6742;48.036;15.780;2024-03-08T07:13:20;33.17;;;22.27;;
13345;SDS011;6742;48.036;15.780;2024-03-08T07:15:47;32.83;;;22.77;;
13345;SDS011;6742;48.036;15.780;2024-03-08T07:18:14;33.40;;;22.40;;
13345;SDS011;6742;48.036;15.780;2024-03-08T07:20:41;35.67;;;22.83;;
13345;SDS011;6742;48.036;15.780;2024-03-08T07:23:08;32.03;;;22.20;;
13345;SDS011;6742;48.036;15.780;2024-03-08T07:25:35;32.33;;;22.53;;
13345;SDS011;6742;48.036;15.780;2024-03-08T07:28:04;29.53;;;20.33;;
13345;SDS011;6742;48.036;15.780;2024-03-08T07:30:34;30.83;;;21.93;;
13345;SDS011;6742;48.036;15.780;2024-03-08T07:33:27;32.67;;;22.33;;
13345;SDS011;6742;48.036;15.780;2024-03-08T07:35:54;30.67;;;20.87;;
13345;SDS011;6742;48.036;15.780;2024-03-08T07:38:21;34.60;;;22.40;;
13345;SDS011;6742;48.036;15.780;2024-03-08T07:40:48;31.47;;;21.20;;
13345;SDS011;6742;48.036;15.780;2024-03-08T07:43:15;34.57;;;21.10;;
13345;SDS011;6742;48.036;15.780;2024-03-08T07:45:44;32.37;;;21.63;;
13345;SDS011;6742;48.036;15.780;2024-03-08T07:48:11;34.73;;;22.53;;
13345;SDS011;6742;48.036;15.780;2024-03-08T07:50:38;30.67;;;21.00;;
13345;SDS011;6742;48.036;15.780;2024-03-08T07:53:06;29.70;;;20.13;;
13345;SDS011;6742;48.036;15.780;2024-03-08T07:55:33;29.70;;;20.37;;
13345;SDS011;6742;48.036;15.780;2024-03-08T07:58:00;29.10;;;19.43;;
13345;SDS011;6742;48.036;15.780;2024-03-08T08:00:28;30.67;;;20.37;;
13345;SDS011;6742;48.036;15.780;2024-03-08T08:02:57;27.80;;;19.23;;
13345;SDS011;6742;48.036;15.780;2024-03-08T08:05:24;29.17;;;19.60;;
13345;SDS011;6742;48.036;15.780;2024-03-08T08:07:52;27.57;;;18.83;;
13345;SDS011;6742;48.036;15.780;2024-03-08T08:10:19;27.23;;;17.73;;
13345;SDS011;6742;48.036;15.780;2024-03-08T08:12:47;24.93;;;16.97;;
13345;SDS011;6742;48.036;15.780;2024-03-08T08:15:15;23.87;;;16.43;;
13345;SDS011;6742;48.036;15.780;2024-03-08T08:17:42;23.07;;;16.40;;
13345;SDS011;6742;48.036;15.780;2024-03-08T08:20:11;22.93;;;16.07;;
13345;SDS011;6742;48.036;15.780;2024-03-08T08:22:39;23.43;;;16.97;;
13345;SDS011;6742;48.036;15.780;2024-03-08T08:25:06;22.80;;;15.63;;
13345;SDS011;6742;48.036;15.780;2024-03-08T08:27:34;20.37;;;14.90;;
13345;SDS011;6742;48.036;15.780;2024-03-08T08:30:01;22.87;;;15.47;;
13345;SDS011;6742;48.036;15.780;2024-03-08T08:32:33;19.43;;;14.73;;
13345;SDS011;6742;48.036;15.780;2024-03-08T08:35:00;19.50;;;14.37;;
13345;SDS011;6742;48.036;15.780;2024-03-08T08:37:28;19.80;;;14.40;;
13345;SDS011;6742;48.036;15.780;2024-03-08T08:39:56;21.07;;;15.33;;
13345;SDS011;6742;48.036;15.780;2024-03-08T08:42:23;20.73;;;14.97;;
13345;SDS011;6742;48.036;15.780;2024-03-08T08:44:50;20.30;;;15.23;;
13345;SDS011;6742;48.036;15.780;2024-03-08T08:47:17;19.27;;;14.43;;
13345;SDS011;6742;48.036;15.780;2024-03-08T08:49:44;17.03;;;12.83;;
13345;SDS011;6742;48.036;15.780;2024-03-08T08:52:12;19.47;;;13.63;;
13345;SDS011;6742;48.036;15.780;2024-03-08T08:54:42;16.73;;;13.63;;
13345;SDS011;6742;48.036;15.780;2024-03-08T08:57:09;17.53;;;13.67;;
13345;SDS011;6742;48.036;15.780;2024-03-08T08:59:36;16.57;;;12.30;;
13345;SDS011;6742;48.036;15.780;2024-03-08T09:02:04;15.60;;;13.40;;
13345;SDS011;6742;48.036;15.780;2024-03-08T09:04:31;17.20;;;13.37;;
13345;SDS011;6742;48.036;15.780;2024-03-08T09:06:58;12.70;;;10.50;;
13345;SDS011;6742;48.036;15.780;2024-03-08T09:09:26;13.27;;;10.80;;
13345;SDS011;6742;48.036;15.780;2024-03-08T09:11:56;12.20;;;8.97;;
13345;SDS011;6742;48.036;15.780;2024-03-08T09:14:23;10.73;;;8.60;;
13345;SDS011;6742;48.036;15.780;2024-03-08T09:16:51;11.63;;;9.10;;
13345;SDS011;6742;48.036;15.780;2024-03-08T09:19:18;11.23;;;10.00;;
13345;SDS011;6742;48.036;15.780;2024-03-08T09:21:45;11.90;;;9.90;;
13345;SDS011;6742;48.036;15.780;2024-03-08T09:24:13;12.63;;;10.30;;
13345;SDS011;6742;48.036;15.780;2024-03-08T09:26:41;12.00;;;9.80;;
13345;SDS011;6742;48.036;15.780;2024-03-08T09:29:09;11.20;;;9.60;;
13345;SDS011;6742;48.036;15.780;2024-03-08T09:31:36;13.13;;;10.87;;
13345;SDS011;6742;48.036;15.780;2024-03-08T09:34:04;11.87;;;9.60;;
13345;SDS011;6742;48.036;15.780;2024-03-08T09:36:33;13.43;;;10.67;;
13345;SDS011;6742;48.036;15.780;2024-03-08T09:39:00;11.97;;;10.60;;
13345;SDS011;6742;48.036;15.780;2024-03-08T09:41:28;12.77;;;10.60;;
13345;SDS011;6742;48.036;15.780;2024-03-08T09:43:55;13.60;;;10.07;;
13345;SDS011;6742;48.036;15.780;2024-03-08T09:46:26;11.70;;;9.37;;
13345;SDS011;6742;48.036;15.780;2024-03-08T09:48:53;13.83;;;11.10;;
13345;SDS011;6742;48.036;15.780;2024-03-08T09:51:21;11.10;;;9.77;;
13345;SDS011;6742;48.036;15.780;2024-03-08T09:53:53;14.17;;;11.47;;
13345;SDS011;6742;48.036;15.780;2024-03-08T09:56:20;14.50;;;11.30;;
13345;SDS011;6742;48.036;15.780;2024-03-08T09:58:48;15.87;;;12.80;;
13345;SDS011;6742;48.036;15.780;2024-03-08T10:01:41;13.30;;;11.63;;
13345;SDS011;6742;48.036;15.780;2024-03-08T10:04:09;15.73;;;11.70;;
13345;SDS011;6742;48.036;15.780;2024-03-08T10:06:36;14.13;;;11.77;;
13345;SDS011;6742;48.036;15.780;2024-03-08T10:09:03;13.43;;;11.37;;
13345;SDS011;6742;48.036;15.780;2024-03-08T10:11:31;13.77;;;11.20;;
13345;SDS011;6742;48.036;15.780;2024-03-08T10:13:58;13.37;;;10.73;;
13345;SDS011;6742;48.036;15.780;2024-03-08T10:16:26;14.83;;;12.27;;
13345;SDS011;6742;48.036;15.780;2024-03-08T10:18:55;14.10;;;12.37;;
13345;SDS011;6742;48.036;15.780;2024-03-08T10:21:22;17.67;;;12.90;;
13345;SDS011;6742;48.036;15.780;2024-03-08T10:23:50;14.43;;;11.37;;
13345;SDS011;6742;48.036;15.780;2024-03-08T10:26:17;15.33;;;11.70;;
13345;SDS011;6742;48.036;15.780;2024-03-08T10:28:46;14.53;;;12.03;;
13345;SDS011;6742;48.036;15.780;2024-03-08T10:31:14;15.20;;;12.27;;
13345;SDS011;6742;48.036;15.780;2024-03-08T10:33:42;14.43;;;11.83;;
13345;SDS011;6742;48.036;15.780;2024-03-08T10:36:11;16.53;;;12.23;;
13345;SDS011;6742;48.036;15.780;2024-03-08T10:38:39;14.57;;;11.53;;
13345;SDS011;6742;48.036;15.780;2024-03-08T10:41:12;15.63;;;12.00;;
13345;SDS011;6742;48.036;15.780;2024-03-08T10:43:44;15.73;;;13.10;;
13345;SDS011;6742;48.036;15.780;2024-03-08T10:46:27;16.20;;;13.20;;
13345;SDS011;6742;48.036;15.780;2024-03-08T10:48:59;14.57;;;11.93;;
13345;SDS011;6742;48.036;15.780;2024-03-08T10:51:32;15.47;;;12.50;;
13345;SDS011;6742;48.036;15.780;2024-03-08T10:53:59;14.77;;;11.60;;
13345;SDS011;6742;48.036;15.780;2024-03-08T10:56:28;16.93;;;12.37;;
13345;SDS011;6742;48.036;15.780;2024-03-08T10:58:55;14.70;;;12.00;;
13345;SDS011;6742;48.036;15.780;2024-03-08T11:01:22;14.60;;;11.57;;
13345;SDS011;6742;48.036;15.780;2024-03-08T11:03:51;16.33;;;13.43;;
13345;SDS011;6742;48.036;15.780;2024-03-08T11:06:22;16.20;;;11.60;;
13345;SDS011;6742;48.036;15.780;2024-03-08T11:08:58;13.77;;;11.00;;
13345;SDS011;6742;48.036;15.780;2024-03-08T11:11:26;13.70;;;11.53;;
13345;SDS011;6742;48.036;15.780;2024-03-08T11:13:55;15.27;;;12.23;;
13345;SDS011;6742;48.036;15.780;2024-03-08T11:16:36;14.60;;;11.97;;
13345;SDS011;6742;48.036;15.780;2024-03-08T11:19:07;11.07;;;9.10;;
13345;SDS011;6742;48.036;15.780;2024-03-08T11:21:57;11.20;;;8.60;;
13345;SDS011;6742;48.036;15.780;2024-03-08T11:24:26;11.43;;;9.70;;
13345;SDS011;6742;48.036;15.780;2024-03-08T11:26:56;11.23;;;9.83;;
13345;SDS011;6742;48.036;15.780;2024-03-08T11:29:32;10.50;;;9.07;;
13345;SDS011;6742;48.036;15.780;2024-03-08T11:32:04;10.87;;;9.27;;
13345;SDS011;6742;48.036;15.780;2024-03-08T11:34:33;10.73;;;9.07;;
13345;SDS011;6742;48.036;15.780;2024-03-08T11:37:00;9.53;;;8.33;;
13345;SDS011;6742;48.036;15.780;2024-03-08T11:39:30;8.83;;;7.87;;
13345;SDS011;6742;48.036;15.780;2024-03-08T11:41:58;10.67;;;8.33;;
13345;SDS011;6742;48.036;15.780;2024-03-08T11:44:26;10.03;;;8.67;;
13345;SDS011;6742;48.036;15.780;2024-03-08T11:46:53;10.70;;;9.47;;
13345;SDS011;6742;48.036;15.780;2024-03-08T11:49:20;9.87;;;8.43;;
13345;SDS011;6742;48.036;15.780;2024-03-08T11:51:50;10.47;;;8.87;;
13345;SDS011;6742;48.036;15.780;2024-03-08T11:54:18;9.23;;;7.80;;
13345;SDS011;6742;48.036;15.780;2024-03-08T11:56:47;8.80;;;7.73;;
13345;SDS011;6742;48.036;15.780;2024-03-08T11:59:14;7.90;;;7.10;;
13345;SDS011;6742;48.036;15.780;2024-03-08T12:01:42;8.67;;;7.17;;
13345;SDS011;6742;48.036;15.780;2024-03-08T12:04:11;8.03;;;7.00;;
13345;SDS011;6742;48.036;15.780;2024-03-08T12:06:39;7.90;;;6.73;;
13345;SDS011;6742;48.036;15.780;2024-03-08T12:09:10;8.60;;;7.07;;
13345;SDS011;6742;48.036;15.780;2024-03-08T12:11:38;8.33;;;7.10;;
13345;SDS011;6742;48.036;15.780;2024-03-08T12:14:06;7.50;;;6.70;;
13345;SDS011;6742;48.036;15.780;2024-03-08T12:16:33;8.63;;;7.73;;
13345;SDS011;6742;48.036;15.780;2024-03-08T12:19:02;9.57;;;8.30;;
13345;SDS011;6742;48.036;15.780;2024-03-08T12:21:31;8.40;;;7.40;;
13345;SDS011;6742;48.036;15.780;2024-03-08T12:24:03;9.03;;;7.87;;
13345;SDS011;6742;48.036;15.780;2024-03-08T12:26:34;8.20;;;7.27;;
13345;SDS011;6742;48.036;15.780;2024-03-08T12:29:16;8.33;;;7.50;;
13345;SDS011;6742;48.036;15.780;2024-03-08T12:31:45;9.20;;;8.20;;
13345;SDS011;6742;48.036;15.780;2024-03-08T12:34:13;7.67;;;6.87;;
13345;SDS011;6742;48.036;15.780;2024-03-08T12:36:44;8.93;;;7.83;;
13345;SDS011;6742;48.036;15.780;2024-03-08T12:39:13;8.50;;;7.33;;
13345;SDS011;6742;48.036;15.780;2024-03-08T12:41:43;7.97;;;7.00;;
13345;SDS011;6742;48.036;15.780;2024-03-08T12:44:11;8.57;;;7.50;;
13345;SDS011;6742;48.036;15.780;2024-03-08T12:46:40;7.70;;;6.90;;
13345;SDS011;6742;48.036;15.780;2024-03-08T12:49:09;7.37;;;6.57;;
13345;SDS011;6742;48.036;15.780;2024-03-08T12:51:37;8.77;;;7.40;;
13345;SDS011;6742;48.036;15.780;2024-03-08T12:54:04;8.63;;;7.30;;
13345;SDS011;6742;48.036;15.780;2024-03-08T12:56:33;8.77;;;7.33;;
13345;SDS011;6742;48.036;15.780;2024-03-08T12:59:03;8.70;;;6.47;;
13345;SDS011;6742;48.036;15.780;2024-03-08T13:01:31;8.13;;;7.10;;
13345;SDS011;6742;48.036;15.780;2024-03-08T13:03:59;8.23;;;6.83;;
13345;SDS011;6742;48.036;15.780;2024-03-08T13:06:27;8.27;;;6.87;;
13345;SDS011;6742;48.036;15.780;2024-03-08T13:08:56;8.17;;;6.50;;
13345;SDS011;6742;48.036;15.780;2024-03-08T13:11:23;8.40;;;7.37;;
13345;SDS011;6742;48.036;15.780;2024-03-08T13:13:51;7.97;;;6.47;;
13345;SDS011;6742;48.036;15.780;2024-03-08T13:16:18;7.47;;;6.77;;
13345;SDS011;6742;48.036;15.780;2024-03-08T13:18:46;7.67;;;6.47;;
13345;SDS011;6742;48.036;15.780;2024-03-08T13:21:15;7.10;;;6.40;;
13345;SDS011;6742;48.036;15.780;2024-03-08T13:23:44;6.23;;;5.63;;
13345;SDS011;6742;48.036;15.780;2024-03-08T13:26:15;6.17;;;5.53;;
13345;SDS011;6742;48.036;15.780;2024-03-08T13:28:42;7.17;;;6.10;;
13345;SDS011;6742;48.036;15.780;2024-03-08T13:31:09;8.47;;;6.33;;
13345;SDS011;6742;48.036;15.780;2024-03-08T13:33:40;7.67;;;6.87;;
13345;SDS011;6742;48.036;15.780;2024-03-08T13:36:11;7.97;;;6.70;;
13345;SDS011;6742;48.036;15.780;2024-03-08T13:38:43;8.43;;;6.20;;
13345;SDS011;6742;48.036;15.780;2024-03-08T13:41:11;7.80;;;6.30;;
13345;SDS011;6742;48.036;15.780;2024-03-08T13:43:39;7.67;;;6.37;;
13345;SDS011;6742;48.036;15.780;2024-03-08T13:46:07;6.60;;;5.73;;
13345;SDS011;6742;48.036;15.780;2024-03-08T13:48:35;8.53;;;6.40;;
13345;SDS011;6742;48.036;15.780;2024-03-08T13:51:02;6.90;;;6.20;;
13345;SDS011;6742;48.036;15.780;2024-03-08T13:53:31;8.83;;;6.43;;
13345;SDS011;6742;48.036;15.780;2024-03-08T13:55:59;8.97;;;6.23;;
13345;SDS011;6742;48.036;15.780;2024-03-08T13:58:27;6.97;;;6.28;;
13345;SDS011;6742;48.036;15.780;2024-03-08T14:00:54;6.40;;;5.80;;
13345;SDS011;6742;48.036;15.780;2024-03-08T14:03:20;7.60;;;6.03;;
13345;SDS011;6742;48.036;15.780;2024-03-08T14:05:48;9.37;;;7.10;;
13345;SDS011;6742;48.036;15.780;2024-03-08T14:08:15;10.20;;;8.53;;
13345;SDS011;6742;48.036;15.780;2024-03-08T14:10:42;11.30;;;9.30;;
13345;SDS011;6742;48.036;15.780;2024-03-08T14:13:13;11.27;;;9.30;;
13345;SDS011;6742;48.036;15.780;2024-03-08T14:15:41;7.20;;;6.27;;
13345;SDS011;6742;48.036;15.780;2024-03-08T14:18:09;6.57;;;5.50;;
13345;SDS011;6742;48.036;15.780;2024-03-08T14:20:38;6.40;;;5.57;;
13345;SDS011;6742;48.036;15.780;2024-03-08T14:23:05;6.25;;;5.65;;
13345;SDS011;6742;48.036;15.780;2024-03-08T14:25:33;6.57;;;5.75;;
13345;SDS011;6742;48.036;15.780;2024-03-08T14:28:00;6.13;;;5.53;;
13345;SDS011;6742;48.036;15.780;2024-03-08T14:30:33;7.82;;;6.38;;
13345;SDS011;6742;48.036;15.780;2024-03-08T14:33:03;8.03;;;6.00;;
13345;SDS011;6742;48.036;15.780;2024-03-08T14:35:34;7.28;;;5.90;;